createdAt,value
2017-12-27T00:00:01.396Z,2.33
2017-12-27T00:02:35.281Z,2.33
2017-12-27T00:05:10.223Z,2.87
2017-12-27T00:07:44.038Z,2.50
2017-12-27T00:10:17.826Z,3.30
2017-12-27T00:12:52.456Z,2.80
2017-12-27T00:15:27.214Z,2.17
2017-12-27T00:18:00.943Z,2.75
2017-12-27T00:20:34.997Z,2.60
2017-12-27T00:23:08.931Z,2.45
2017-12-27T00:25:42.814Z,2.08
2017-12-27T00:28:17.731Z,2.87
2017-12-27T00:30:51.389Z,2.60
2017-12-27T00:33:19.712Z,2.00
2017-12-27T00:35:48.087Z,2.08
2017-12-27T00:38:16.594Z,2.55
2017-12-27T00:40:45.667Z,2.53
2017-12-27T00:43:13.989Z,2.35
2017-12-27T00:45:42.370Z,2.03
2017-12-27T00:48:12.900Z,1.60
2017-12-27T00:50:41.369Z,2.05
2017-12-27T00:53:10.602Z,2.22
2017-12-27T00:55:38.988Z,2.10
2017-12-27T00:58:08.391Z,1.80
2017-12-27T01:00:37.123Z,2.25
2017-12-27T01:03:05.497Z,1.70
2017-12-27T01:05:34.590Z,2.10
2017-12-27T01:08:02.944Z,2.00
2017-12-27T01:10:31.292Z,1.67
2017-12-27T01:12:59.601Z,1.80
2017-12-27T01:15:28.080Z,1.42
2017-12-27T01:17:56.373Z,1.50
2017-12-27T01:20:34.496Z,1.50
2017-12-27T01:23:02.842Z,2.10
2017-12-27T01:25:31.261Z,1.90
2017-12-27T01:28:00.418Z,1.40
2017-12-27T01:30:28.797Z,1.92
2017-12-27T01:32:57.126Z,1.83
2017-12-27T01:35:25.476Z,1.80
2017-12-27T01:37:53.782Z,1.80
2017-12-27T01:40:22.131Z,1.80
2017-12-27T01:42:50.583Z,1.90
2017-12-27T01:45:18.891Z,1.75
2017-12-27T01:47:47.237Z,1.55
2017-12-27T01:50:15.617Z,1.55
2017-12-27T01:52:43.993Z,1.48
2017-12-27T01:55:12.298Z,1.48
2017-12-27T01:57:40.667Z,1.70
2017-12-27T02:00:09.010Z,1.50
2017-12-27T02:02:37.372Z,1.52
2017-12-27T02:05:06.857Z,1.50
2017-12-27T02:07:35.152Z,1.50
2017-12-27T02:10:03.494Z,1.55
2017-12-27T02:12:31.867Z,1.37
2017-12-27T02:15:00.189Z,1.52
2017-12-27T02:17:29.297Z,1.48
2017-12-27T02:19:57.662Z,1.65
2017-12-27T02:22:26.756Z,1.92
2017-12-27T02:24:55.853Z,1.65
2017-12-27T02:27:25.464Z,1.77
2017-12-27T02:29:54.558Z,1.40
2017-12-27T02:32:22.916Z,2.10
2017-12-27T02:34:51.286Z,1.58
2017-12-27T02:37:19.627Z,1.20
2017-12-27T02:43:11.566Z,1.92
2017-12-27T02:45:40.017Z,1.85
2017-12-27T02:48:08.367Z,2.10
2017-12-27T02:50:36.706Z,1.40
2017-12-27T02:53:05.109Z,1.70
2017-12-27T02:55:33.443Z,1.23
2017-12-27T02:58:01.839Z,1.65
2017-12-27T03:00:30.181Z,1.80
2017-12-27T03:02:58.518Z,1.70
2017-12-27T03:05:31.801Z,1.70
2017-12-27T03:08:00.166Z,1.65
2017-12-27T03:10:28.483Z,1.90
2017-12-27T03:12:56.888Z,1.50
2017-12-27T03:15:25.214Z,1.52
2017-12-27T03:17:53.543Z,1.35
2017-12-27T03:20:22.717Z,1.87
2017-12-27T03:22:51.154Z,1.67
2017-12-27T03:25:20.274Z,1.60
2017-12-27T03:27:49.863Z,1.60
2017-12-27T03:30:18.228Z,1.85
2017-12-27T03:32:47.340Z,1.75
2017-12-27T03:35:19.019Z,1.75
2017-12-27T03:37:47.531Z,2.03
2017-12-27T03:40:15.890Z,1.65
2017-12-27T03:42:44.632Z,1.70
2017-12-27T03:45:12.941Z,1.37
2017-12-27T03:47:41.288Z,1.45
2017-12-27T03:50:10.889Z,1.60
2017-12-27T03:52:39.218Z,1.70
2017-12-27T03:55:07.575Z,2.03
2017-12-27T03:57:36.811Z,1.60
2017-12-27T04:00:06.031Z,1.75
2017-12-27T04:02:34.419Z,2.12
2017-12-27T04:05:02.871Z,1.60
2017-12-27T04:07:31.888Z,1.65
2017-12-27T04:10:00.268Z,1.55
2017-12-27T04:12:30.389Z,1.70
2017-12-27T04:17:55.646Z,1.58
2017-12-27T04:20:24.814Z,1.80
2017-12-27T04:22:53.190Z,1.98
2017-12-27T04:25:21.573Z,1.42
2017-12-27T04:27:49.945Z,2.00
2017-12-27T04:30:18.329Z,1.90
2017-12-27T04:32:48.111Z,2.28
2017-12-27T04:35:16.475Z,2.00
2017-12-27T04:37:44.837Z,2.10
2017-12-27T04:40:13.289Z,1.40
2017-12-27T04:42:41.684Z,1.75
2017-12-27T04:45:10.773Z,1.30
2017-12-27T04:47:54.296Z,1.58
2017-12-27T04:50:22.673Z,1.50
2017-12-27T04:52:51.036Z,1.60
2017-12-27T04:55:19.418Z,1.70
2017-12-27T04:57:47.826Z,1.87
2017-12-27T05:00:16.185Z,2.00
2017-12-27T05:02:44.764Z,1.83
2017-12-27T05:05:13.256Z,2.12
2017-12-27T05:07:41.711Z,1.60
2017-12-27T05:10:10.530Z,2.17
2017-12-27T05:12:38.892Z,2.10
2017-12-27T05:15:07.290Z,2.00
2017-12-27T05:17:36.896Z,1.60
2017-12-27T05:20:05.276Z,1.60
2017-12-27T05:22:33.654Z,1.85
2017-12-27T05:25:03.058Z,1.50
2017-12-27T05:27:31.481Z,2.65
2017-12-27T05:29:59.984Z,1.42
2017-12-27T05:32:28.958Z,1.58
2017-12-27T05:34:57.469Z,1.70
2017-12-27T05:37:26.026Z,1.67
2017-12-27T05:39:54.689Z,1.27
2017-12-27T05:42:23.042Z,1.48
2017-12-27T05:44:51.423Z,1.70
2017-12-27T05:47:19.876Z,1.30
2017-12-27T05:49:48.389Z,1.05
2017-12-27T05:52:16.843Z,1.77
2017-12-27T05:54:45.479Z,1.67
2017-12-27T05:57:13.863Z,1.65
2017-12-27T05:59:42.244Z,2.20
2017-12-27T06:02:27.384Z,1.50
2017-12-27T06:04:55.804Z,2.00
2017-12-27T06:07:25.357Z,2.20
2017-12-27T06:09:53.934Z,2.92
2017-12-27T06:12:22.299Z,2.37
2017-12-27T06:14:50.815Z,2.70
2017-12-27T06:17:19.391Z,2.90
2017-12-27T06:19:47.799Z,2.72
2017-12-27T06:22:16.171Z,3.50
2017-12-27T06:24:44.649Z,3.45
2017-12-27T06:27:13.040Z,3.70
2017-12-27T06:29:43.230Z,3.17
2017-12-27T06:32:12.063Z,3.40
2017-12-27T06:34:40.589Z,3.20
2017-12-27T06:37:11.765Z,2.90
2017-12-27T06:39:40.324Z,3.20
2017-12-27T06:42:08.830Z,2.72
2017-12-27T06:44:37.414Z,2.80
2017-12-27T06:47:06.016Z,2.20
2017-12-27T06:49:34.486Z,2.03
2017-12-27T06:52:02.945Z,2.35
2017-12-27T06:54:31.630Z,1.92
2017-12-27T06:57:00.073Z,1.98
2017-12-27T06:59:28.550Z,1.50
2017-12-27T07:01:57.092Z,2.25
2017-12-27T07:04:26.397Z,2.05
2017-12-27T07:06:54.774Z,1.40
2017-12-27T07:09:23.298Z,1.50
2017-12-27T07:11:51.834Z,1.60
2017-12-27T07:14:20.293Z,1.85
2017-12-27T07:16:48.973Z,1.70
2017-12-27T07:19:17.693Z,1.87
2017-12-27T07:21:46.177Z,2.10
2017-12-27T07:24:14.698Z,2.00
2017-12-27T07:26:43.141Z,1.62
2017-12-27T07:29:11.551Z,1.37
2017-12-27T07:31:40.004Z,1.67
2017-12-27T07:34:09.165Z,1.60
2017-12-27T07:36:37.603Z,1.83
2017-12-27T07:39:06.780Z,1.50
2017-12-27T07:41:35.166Z,1.70
2017-12-27T07:44:03.525Z,2.15
2017-12-27T07:46:31.883Z,2.00
2017-12-27T07:49:00.224Z,2.12
2017-12-27T07:51:28.557Z,2.50
2017-12-27T07:53:56.922Z,1.70
2017-12-27T07:56:25.252Z,2.30
2017-12-27T07:58:54.346Z,2.10
2017-12-27T08:01:23.711Z,1.87
2017-12-27T08:03:52.225Z,1.87
2017-12-27T08:06:20.563Z,1.80
2017-12-27T08:08:48.913Z,1.95
2017-12-27T08:11:17.225Z,1.60
2017-12-27T08:13:45.588Z,2.15
2017-12-27T08:16:13.967Z,2.40
2017-12-27T08:18:42.301Z,1.90
2017-12-27T08:21:11.709Z,2.00
2017-12-27T08:23:41.095Z,1.77
2017-12-27T08:26:09.403Z,1.85
2017-12-27T08:28:37.719Z,1.85
2017-12-27T08:31:06.089Z,1.92
2017-12-27T08:33:34.441Z,1.77
2017-12-27T08:36:02.819Z,1.73
2017-12-27T08:38:31.160Z,2.10
2017-12-27T08:40:59.489Z,2.00
2017-12-27T08:43:27.810Z,1.83
2017-12-27T08:45:56.883Z,1.55
2017-12-27T08:48:26.039Z,3.00
2017-12-27T08:50:55.131Z,1.55
2017-12-27T08:53:24.722Z,1.85
2017-12-27T08:55:53.066Z,1.80
2017-12-27T08:58:21.410Z,1.77
2017-12-27T09:00:49.856Z,1.40
2017-12-27T09:03:18.242Z,1.40
2017-12-27T09:05:46.574Z,1.87
2017-12-27T09:08:15.892Z,1.77
2017-12-27T09:11:07.346Z,1.80
2017-12-27T09:13:36.451Z,1.45
2017-12-27T09:16:05.551Z,1.45
2017-12-27T09:18:34.656Z,1.60
2017-12-27T09:21:03.340Z,1.87
2017-12-27T09:23:32.445Z,1.35
2017-12-27T09:26:00.797Z,1.42
2017-12-27T09:28:29.489Z,1.75
2017-12-27T09:30:57.849Z,1.55
2017-12-27T09:33:26.171Z,1.60
2017-12-27T09:35:54.751Z,1.70
2017-12-27T09:38:23.057Z,1.50
2017-12-27T09:40:51.355Z,1.95
2017-12-27T09:43:19.709Z,1.85
2017-12-27T09:45:48.026Z,2.08
2017-12-27T09:48:16.534Z,2.20
2017-12-27T09:50:45.715Z,2.30
2017-12-27T09:53:14.851Z,2.20
2017-12-27T09:55:43.163Z,2.22
2017-12-27T09:58:11.552Z,2.10
2017-12-27T10:00:40.666Z,2.12
2017-12-27T10:03:09.760Z,2.12
2017-12-27T10:05:38.889Z,2.30
2017-12-27T10:08:07.291Z,2.47
2017-12-27T10:10:35.594Z,2.45
2017-12-27T10:13:04.294Z,2.20
2017-12-27T10:15:32.629Z,2.50
2017-12-27T10:18:00.922Z,1.98
2017-12-27T10:20:29.300Z,2.10
2017-12-27T10:22:57.623Z,2.55
2017-12-27T10:25:26.727Z,2.50
2017-12-27T10:27:55.820Z,2.83
2017-12-27T10:30:25.017Z,2.53
2017-12-27T10:32:54.148Z,2.95
2017-12-27T10:35:22.702Z,2.40
2017-12-27T10:37:51.851Z,2.25
2017-12-27T10:40:20.211Z,2.33
2017-12-27T10:42:48.572Z,2.20
2017-12-27T10:45:16.894Z,3.00
2017-12-27T10:47:45.262Z,2.15
2017-12-27T10:50:13.659Z,2.30
2017-12-27T10:52:43.041Z,2.55
2017-12-27T10:55:11.407Z,2.12
2017-12-27T10:57:39.988Z,2.05
2017-12-27T11:00:08.481Z,2.65
2017-12-27T11:02:36.829Z,2.47
2017-12-27T11:05:05.240Z,1.70
2017-12-27T11:07:33.574Z,2.53
2017-12-27T11:10:02.669Z,2.20
2017-12-27T11:12:31.787Z,1.85
2017-12-27T11:15:00.089Z,2.58
2017-12-27T11:17:28.486Z,2.62
2017-12-27T11:19:57.018Z,2.40
2017-12-27T11:22:25.396Z,2.40
2017-12-27T11:24:53.707Z,1.90
2017-12-27T11:27:22.089Z,1.90
2017-12-27T11:29:50.390Z,1.98
2017-12-27T11:32:18.707Z,2.58
2017-12-27T11:34:47.843Z,2.20
2017-12-27T11:37:16.174Z,2.12
2017-12-27T11:39:44.595Z,2.53
2017-12-27T11:42:13.123Z,1.95
2017-12-27T11:44:42.231Z,2.00
2017-12-27T11:49:45.796Z,2.37
2017-12-27T11:52:14.150Z,2.50
2017-12-27T11:57:40.598Z,2.20
2017-12-27T12:00:08.924Z,2.23
2017-12-27T12:02:37.255Z,2.23
2017-12-27T12:05:06.527Z,2.33
2017-12-27T12:07:34.859Z,2.20
2017-12-27T12:10:03.182Z,2.50
2017-12-27T12:12:31.511Z,2.13
2017-12-27T12:14:59.814Z,2.20
2017-12-27T12:17:28.142Z,2.47
2017-12-27T12:19:57.726Z,2.70
2017-12-27T12:22:26.868Z,2.65
2017-12-27T12:24:55.201Z,2.47
2017-12-27T12:27:24.460Z,2.63
2017-12-27T12:29:52.794Z,2.85
2017-12-27T12:32:21.920Z,2.35
2017-12-27T12:34:50.284Z,2.15
2017-12-27T12:37:18.609Z,2.10
2017-12-27T12:39:46.950Z,2.37
2017-12-27T12:42:15.538Z,2.47
2017-12-27T12:44:43.864Z,3.00
2017-12-27T12:47:12.164Z,2.50
2017-12-27T12:49:41.264Z,3.08
2017-12-27T12:52:10.433Z,2.92
2017-12-27T12:54:38.951Z,2.97
2017-12-27T12:57:07.288Z,2.62
2017-12-27T12:59:35.589Z,2.80
2017-12-27T13:02:04.802Z,2.60
2017-12-27T13:04:33.355Z,3.80
2017-12-27T13:07:01.723Z,3.00
2017-12-27T13:09:30.074Z,3.17
2017-12-27T13:11:58.489Z,3.20
2017-12-27T13:14:26.839Z,2.83
2017-12-27T13:16:55.183Z,3.23
2017-12-27T13:19:24.285Z,3.27
2017-12-27T13:21:53.380Z,2.97
2017-12-27T13:24:21.689Z,3.53
2017-12-27T13:26:50.398Z,2.90
2017-12-27T13:29:19.658Z,2.55
2017-12-27T13:31:47.977Z,2.17
2017-12-27T13:34:16.352Z,2.67
2017-12-27T13:36:44.803Z,2.78
2017-12-27T13:39:13.131Z,2.83
2017-12-27T13:41:41.506Z,2.73
2017-12-27T13:44:09.853Z,3.20
2017-12-27T13:46:38.185Z,2.77
2017-12-27T13:49:07.515Z,3.00
2017-12-27T13:51:35.863Z,3.17
2017-12-27T13:54:04.195Z,2.65
2017-12-27T13:56:32.578Z,2.62
2017-12-27T13:59:00.930Z,2.60
2017-12-27T14:01:29.291Z,2.70
2017-12-27T14:03:57.650Z,2.75
2017-12-27T14:06:26.025Z,3.40
2017-12-27T14:08:54.352Z,2.45
2017-12-27T14:11:22.962Z,2.53
2017-12-27T14:13:51.265Z,3.03
2017-12-27T14:16:19.595Z,3.10
2017-12-27T14:18:47.953Z,3.20
2017-12-27T14:21:16.292Z,2.90
2017-12-27T14:23:44.589Z,2.80
2017-12-27T14:26:13.733Z,3.13
2017-12-27T14:28:42.095Z,2.87
2017-12-27T14:31:10.411Z,2.50
2017-12-27T14:33:39.140Z,2.83
2017-12-27T14:36:08.253Z,3.30
2017-12-27T14:38:36.582Z,3.33
2017-12-27T14:41:04.929Z,2.60
2017-12-27T14:43:33.271Z,2.67
2017-12-27T14:46:01.653Z,3.37
2017-12-27T14:48:30.070Z,3.90
2017-12-27T14:50:58.406Z,2.70
2017-12-27T14:53:26.750Z,3.40
2017-12-27T14:55:55.591Z,2.53
2017-12-27T14:58:23.896Z,3.20
2017-12-27T15:00:52.271Z,3.40
2017-12-27T15:03:20.710Z,3.12
2017-12-27T15:05:49.821Z,2.92
2017-12-27T15:08:18.124Z,2.97
2017-12-27T15:10:46.542Z,3.03
2017-12-27T15:13:14.924Z,4.03
2017-12-27T15:15:43.257Z,3.15
2017-12-27T15:18:11.713Z,3.10
2017-12-27T15:20:40.811Z,4.10
2017-12-27T15:23:09.898Z,4.10
2017-12-27T15:25:39.081Z,3.90
2017-12-27T15:28:08.197Z,3.85
2017-12-27T15:30:36.502Z,3.90
2017-12-27T15:33:04.902Z,4.43
2017-12-27T15:35:33.242Z,3.78
2017-12-27T15:38:01.613Z,4.03
2017-12-27T15:40:30.294Z,4.28
2017-12-27T15:42:58.609Z,4.15
2017-12-27T15:45:27.046Z,4.20
2017-12-27T15:47:56.184Z,4.55
2017-12-27T15:50:24.543Z,4.03
2017-12-27T15:52:52.934Z,4.53
2017-12-27T15:55:21.377Z,4.37
2017-12-27T15:57:49.687Z,3.67
2017-12-27T16:00:18.038Z,4.53
2017-12-27T16:02:47.505Z,3.75
2017-12-27T16:05:15.844Z,4.55
2017-12-27T16:07:44.197Z,5.10
2017-12-27T16:10:13.339Z,4.15
2017-12-27T16:12:41.684Z,4.55
2017-12-27T16:15:10.014Z,4.25
2017-12-27T16:17:38.385Z,5.47
2017-12-27T16:20:06.724Z,5.75
2017-12-27T16:22:35.794Z,4.60
2017-12-27T16:25:04.887Z,6.35
2017-12-27T16:27:33.212Z,5.00
2017-12-27T16:30:01.523Z,4.90
2017-12-27T16:32:29.906Z,4.20
2017-12-27T16:34:58.266Z,4.80
2017-12-27T16:37:26.612Z,5.35
2017-12-27T16:39:55.099Z,5.07
2017-12-27T16:42:23.432Z,4.60
2017-12-27T16:44:51.756Z,4.55
2017-12-27T16:47:20.332Z,5.10
2017-12-27T16:49:48.693Z,6.35
2017-12-27T16:52:17.769Z,5.57
2017-12-27T16:54:46.109Z,5.93
2017-12-27T16:57:14.911Z,5.10
2017-12-27T16:59:43.271Z,5.25
2017-12-27T17:02:11.659Z,5.45
2017-12-27T17:04:39.969Z,6.15
2017-12-27T17:07:08.302Z,5.32
2017-12-27T17:09:36.855Z,6.80
2017-12-27T17:12:05.180Z,6.97
2017-12-27T17:14:33.514Z,6.47
2017-12-27T17:17:02.610Z,5.50
2017-12-27T17:19:31.694Z,6.10
2017-12-27T17:22:00.048Z,5.07
2017-12-27T17:24:28.443Z,6.50
2017-12-27T17:26:57.065Z,6.28
2017-12-27T17:29:25.393Z,6.00
2017-12-27T17:31:54.429Z,5.82
2017-12-27T17:34:23.031Z,7.20
2017-12-27T17:36:51.602Z,7.15
2017-12-27T17:39:20.742Z,7.90
2017-12-27T17:41:49.121Z,8.13
2017-12-27T17:44:17.425Z,7.50
2017-12-27T17:46:45.797Z,7.28
2017-12-27T17:49:14.131Z,7.85
2017-12-27T17:51:42.536Z,7.03
2017-12-27T17:54:11.383Z,7.90
2017-12-27T17:56:39.705Z,7.45
2017-12-27T17:59:08.048Z,7.93
2017-12-27T18:01:36.409Z,8.68
2017-12-27T18:04:04.758Z,7.45
2017-12-27T18:06:33.140Z,7.53
2017-12-27T18:09:01.489Z,7.00
2017-12-27T18:11:29.829Z,7.20
2017-12-27T18:13:58.940Z,6.85
2017-12-27T18:16:27.388Z,6.93
2017-12-27T18:18:55.717Z,6.75
2017-12-27T18:21:24.096Z,7.18
2017-12-27T18:23:52.432Z,8.10
2017-12-27T18:26:21.544Z,7.15
2017-12-27T18:28:49.881Z,7.85
2017-12-27T18:31:18.242Z,7.12
2017-12-27T18:33:46.865Z,6.82
2017-12-27T18:36:15.187Z,7.57
2017-12-27T18:38:43.686Z,7.25
2017-12-27T18:41:12.001Z,7.90
2017-12-27T18:43:40.386Z,7.55
2017-12-27T18:46:08.736Z,7.65
2017-12-27T18:48:37.078Z,7.40
2017-12-27T18:51:05.395Z,7.10
2017-12-27T18:53:33.755Z,7.55
2017-12-27T18:56:02.114Z,8.05
2017-12-27T18:58:30.475Z,7.85
2017-12-27T19:00:59.684Z,7.95
2017-12-27T19:03:28.003Z,7.47
2017-12-27T19:05:56.335Z,7.65
2017-12-27T19:08:25.431Z,7.47
2017-12-27T19:10:53.750Z,7.50
2017-12-27T19:13:22.088Z,7.90
2017-12-27T19:15:50.532Z,7.18
2017-12-27T19:18:18.881Z,7.68
2017-12-27T19:20:47.238Z,7.85
2017-12-27T19:23:15.840Z,7.37
2017-12-27T19:25:44.217Z,7.43
2017-12-27T19:28:12.890Z,8.00
2017-12-27T19:30:41.229Z,9.27
2017-12-27T19:33:09.547Z,8.38
2017-12-27T19:35:37.881Z,7.47
2017-12-27T19:38:06.254Z,8.10
2017-12-27T19:40:34.575Z,8.07
2017-12-27T19:43:02.917Z,8.35
2017-12-27T19:45:31.436Z,7.03
2017-12-27T19:47:59.767Z,7.70
2017-12-27T19:50:28.091Z,7.12
2017-12-27T19:52:57.239Z,7.80
2017-12-27T19:55:25.592Z,7.70
2017-12-27T19:57:54.143Z,8.23
2017-12-27T20:00:23.286Z,8.20
2017-12-27T20:02:51.612Z,7.90
2017-12-27T20:05:19.949Z,8.15
2017-12-27T20:07:48.786Z,7.80
2017-12-27T20:10:17.924Z,7.18
2017-12-27T20:12:46.234Z,7.97
2017-12-27T20:15:14.589Z,8.15
2017-12-27T20:17:42.904Z,7.80
2017-12-27T20:20:11.198Z,7.10
2017-12-27T20:22:39.571Z,7.18
2017-12-27T20:25:08.669Z,8.10
2017-12-27T20:27:37.804Z,8.40
2017-12-27T20:30:06.299Z,7.60
2017-12-27T20:32:34.654Z,8.00
2017-12-27T20:35:03.004Z,8.60
2017-12-27T20:37:33.094Z,7.47
2017-12-27T20:40:01.518Z,7.80
2017-12-27T20:42:29.836Z,8.00
2017-12-27T20:44:58.177Z,8.25
2017-12-27T20:47:26.522Z,8.25
2017-12-27T20:49:54.857Z,7.65
2017-12-27T20:52:23.313Z,8.05
2017-12-27T20:54:51.706Z,7.97
2017-12-27T20:57:20.022Z,8.52
2017-12-27T20:59:48.422Z,7.97
2017-12-27T21:02:16.797Z,7.87
2017-12-27T21:04:45.121Z,7.70
2017-12-27T21:07:13.486Z,7.32
2017-12-27T21:09:41.814Z,7.10
2017-12-27T21:12:10.137Z,7.43
2017-12-27T21:14:38.841Z,7.32
2017-12-27T21:17:07.221Z,7.65
2017-12-27T21:19:35.533Z,8.35
2017-12-27T21:22:03.890Z,8.45
2017-12-27T21:24:32.224Z,7.93
2017-12-27T21:27:01.314Z,8.32
2017-12-27T21:29:29.661Z,8.50
2017-12-27T21:31:58.011Z,8.52
2017-12-27T21:34:26.358Z,7.82
2017-12-27T21:36:55.958Z,7.03
2017-12-27T21:39:24.335Z,7.00
2017-12-27T21:41:52.726Z,7.72
2017-12-27T21:44:21.108Z,8.60
2017-12-27T21:46:50.210Z,7.57
2017-12-27T21:49:23.910Z,7.90
2017-12-27T21:51:52.339Z,7.28
2017-12-27T21:54:20.693Z,7.90
2017-12-27T21:56:49.881Z,7.90
2017-12-27T21:59:23.645Z,8.23
2017-12-27T22:01:52.010Z,7.20
2017-12-27T22:04:20.339Z,8.18
2017-12-27T22:06:48.689Z,7.05
2017-12-27T22:09:17.034Z,7.90
2017-12-27T22:11:45.395Z,7.87
2017-12-27T22:14:13.701Z,8.82
2017-12-27T22:16:43.145Z,8.05
2017-12-27T22:19:12.273Z,7.90
2017-12-27T22:21:40.604Z,9.38
2017-12-27T22:24:09.750Z,7.47
2017-12-27T22:26:38.105Z,8.65
2017-12-27T22:29:07.235Z,9.02
2017-12-27T22:31:35.638Z,8.02
2017-12-27T22:34:03.973Z,7.95
2017-12-27T22:36:32.315Z,8.43
2017-12-27T22:39:00.743Z,7.15
2017-12-27T22:41:29.061Z,7.65
2017-12-27T22:43:57.382Z,7.37
2017-12-27T22:46:26.503Z,7.12
2017-12-27T22:48:54.832Z,7.68
2017-12-27T22:51:23.200Z,7.55
2017-12-27T22:53:51.586Z,8.10
2017-12-27T22:56:19.902Z,8.25
2017-12-27T22:58:48.237Z,8.80
2017-12-27T23:01:16.652Z,9.02
2017-12-27T23:03:45.774Z,9.07
2017-12-27T23:06:14.100Z,8.15
2017-12-27T23:08:42.445Z,8.23
2017-12-27T23:11:10.977Z,8.48
2017-12-27T23:13:39.370Z,8.00
2017-12-27T23:16:08.511Z,9.38
2017-12-27T23:18:36.843Z,7.62
2017-12-27T23:21:05.935Z,8.38
2017-12-27T23:23:35.448Z,7.90
2017-12-27T23:26:03.776Z,7.78
2017-12-27T23:28:32.115Z,7.40
2017-12-27T23:31:00.475Z,7.72
2017-12-27T23:33:29.557Z,8.48
2017-12-27T23:35:57.875Z,8.48
2017-12-27T23:38:26.210Z,8.05
2017-12-27T23:40:54.536Z,8.73
2017-12-27T23:43:23.623Z,7.70
2017-12-27T23:45:52.386Z,7.65
2017-12-27T23:48:20.688Z,8.43
2017-12-27T23:50:49.024Z,8.40
2017-12-27T23:53:17.367Z,8.10
2017-12-27T23:55:45.695Z,8.27
2017-12-27T23:58:14.022Z,8.57
